sensor_id;sensor_type;location;lat;lon;timestamp;P1;durP1;ratioP1;P2;durP2;ratioP2
25687;SDS011;17407;51.120;3.702;2023-07-16T00:01:16;10.45;;;4.50;;
25687;SDS011;17407;51.120;3.702;2023-07-16T00:03:42;16.98;;;4.75;;
25687;SDS011;17407;51.120;3.702;2023-07-16T00:06:08;12.32;;;4.93;;
25687;SDS011;17407;51.120;3.702;2023-07-16T00:08:34;11.57;;;4.18;;
25687;SDS011;17407;51.120;3.702;2023-07-16T00:10:59;16.65;;;4.15;;
25687;SDS011;17407;51.120;3.702;2023-07-16T00:13:25;11.63;;;4.35;;
25687;SDS011;17407;51.120;3.702;2023-07-16T00:15:51;11.43;;;4.63;;
25687;SDS011;17407;51.120;3.702;2023-07-16T00:18:16;10.10;;;4.30;;
25687;SDS011;17407;51.120;3.702;2023-07-16T00:20:42;8.73;;;4.28;;
25687;SDS011;17407;51.120;3.702;2023-07-16T00:23:08;12.05;;;4.22;;
25687;SDS011;17407;51.120;3.702;2023-07-16T00:25:33;12.25;;;4.93;;
25687;SDS011;17407;51.120;3.702;2023-07-16T00:28:00;20.52;;;5.45;;
25687;SDS011;17407;51.120;3.702;2023-07-16T00:30:25;12.43;;;4.38;;
25687;SDS011;17407;51.120;3.702;2023-07-16T00:32:51;10.90;;;4.45;;
25687;SDS011;17407;51.120;3.702;2023-07-16T00:35:17;11.70;;;4.43;;
25687;SDS011;17407;51.120;3.702;2023-07-16T00:37:42;12.23;;;4.40;;
25687;SDS011;17407;51.120;3.702;2023-07-16T00:40:10;9.90;;;4.10;;
25687;SDS011;17407;51.120;3.702;2023-07-16T00:42:35;19.27;;;5.03;;
25687;SDS011;17407;51.120;3.702;2023-07-16T00:45:01;14.23;;;4.15;;
25687;SDS011;17407;51.120;3.702;2023-07-16T00:47:28;10.27;;;4.65;;
25687;SDS011;17407;51.120;3.702;2023-07-16T00:49:53;16.95;;;5.22;;
25687;SDS011;17407;51.120;3.702;2023-07-16T00:52:19;12.93;;;3.72;;
25687;SDS011;17407;51.120;3.702;2023-07-16T00:54:47;15.15;;;4.22;;
25687;SDS011;17407;51.120;3.702;2023-07-16T00:57:13;13.70;;;4.80;;
25687;SDS011;17407;51.120;3.702;2023-07-16T00:59:39;15.48;;;4.53;;
25687;SDS011;17407;51.120;3.702;2023-07-16T01:02:05;13.80;;;3.83;;
25687;SDS011;17407;51.120;3.702;2023-07-16T01:04:30;10.52;;;4.30;;
25687;SDS011;17407;51.120;3.702;2023-07-16T01:06:58;11.85;;;4.50;;
25687;SDS011;17407;51.120;3.702;2023-07-16T01:09:28;12.93;;;4.53;;
25687;SDS011;17407;51.120;3.702;2023-07-16T01:11:55;9.20;;;4.30;;
25687;SDS011;17407;51.120;3.702;2023-07-16T01:14:22;11.57;;;4.30;;
25687;SDS011;17407;51.120;3.702;2023-07-16T01:16:48;12.45;;;5.00;;
25687;SDS011;17407;51.120;3.702;2023-07-16T01:19:14;13.38;;;4.93;;
25687;SDS011;17407;51.120;3.702;2023-07-16T01:21:44;11.73;;;4.25;;
25687;SDS011;17407;51.120;3.702;2023-07-16T01:24:53;10.48;;;4.80;;
25687;SDS011;17407;51.120;3.702;2023-07-16T01:30:16;11.45;;;4.95;;
25687;SDS011;17407;51.120;3.702;2023-07-16T01:32:45;13.65;;;5.25;;
25687;SDS011;17407;51.120;3.702;2023-07-16T01:35:11;13.50;;;4.13;;
25687;SDS011;17407;51.120;3.702;2023-07-16T01:37:38;11.05;;;4.47;;
25687;SDS011;17407;51.120;3.702;2023-07-16T01:40:06;16.35;;;5.25;;
25687;SDS011;17407;51.120;3.702;2023-07-16T01:42:34;16.67;;;5.45;;
25687;SDS011;17407;51.120;3.702;2023-07-16T01:44:59;13.23;;;5.90;;
25687;SDS011;17407;51.120;3.702;2023-07-16T01:49:58;13.60;;;6.25;;
25687;SDS011;17407;51.120;3.702;2023-07-16T01:52:24;12.02;;;6.10;;
25687;SDS011;17407;51.120;3.702;2023-07-16T01:54:50;12.13;;;6.55;;
25687;SDS011;17407;51.120;3.702;2023-07-16T01:57:15;14.15;;;6.68;;
25687;SDS011;17407;51.120;3.702;2023-07-16T01:59:41;14.00;;;6.43;;
25687;SDS011;17407;51.120;3.702;2023-07-16T02:02:07;12.77;;;6.43;;
25687;SDS011;17407;51.120;3.702;2023-07-16T02:04:32;16.05;;;6.88;;
25687;SDS011;17407;51.120;3.702;2023-07-16T02:06:59;16.42;;;7.10;;
25687;SDS011;17407;51.120;3.702;2023-07-16T02:09:25;16.00;;;6.30;;
25687;SDS011;17407;51.120;3.702;2023-07-16T02:11:51;12.38;;;6.03;;
25687;SDS011;17407;51.120;3.702;2023-07-16T02:14:17;13.00;;;5.75;;
25687;SDS011;17407;51.120;3.702;2023-07-16T02:16:42;14.55;;;5.47;;
25687;SDS011;17407;51.120;3.702;2023-07-16T02:19:08;10.25;;;5.57;;
25687;SDS011;17407;51.120;3.702;2023-07-16T02:21:34;9.68;;;5.75;;
25687;SDS011;17407;51.120;3.702;2023-07-16T02:23:59;14.02;;;6.15;;
25687;SDS011;17407;51.120;3.702;2023-07-16T02:26:25;15.98;;;5.80;;
25687;SDS011;17407;51.120;3.702;2023-07-16T02:28:51;10.13;;;4.97;;
25687;SDS011;17407;51.120;3.702;2023-07-16T02:31:16;14.25;;;5.45;;
25687;SDS011;17407;51.120;3.702;2023-07-16T02:33:42;9.10;;;4.93;;
25687;SDS011;17407;51.120;3.702;2023-07-16T02:36:07;12.98;;;5.53;;
25687;SDS011;17407;51.120;3.702;2023-07-16T02:38:33;10.63;;;5.25;;
25687;SDS011;17407;51.120;3.702;2023-07-16T02:40:59;12.05;;;4.82;;
25687;SDS011;17407;51.120;3.702;2023-07-16T02:43:24;9.43;;;5.18;;
25687;SDS011;17407;51.120;3.702;2023-07-16T02:45:50;15.55;;;5.55;;
25687;SDS011;17407;51.120;3.702;2023-07-16T02:48:15;12.77;;;5.82;;
25687;SDS011;17407;51.120;3.702;2023-07-16T02:50:41;15.98;;;5.93;;
25687;SDS011;17407;51.120;3.702;2023-07-16T02:53:07;11.60;;;5.72;;
25687;SDS011;17407;51.120;3.702;2023-07-16T02:55:34;9.18;;;5.55;;
25687;SDS011;17407;51.120;3.702;2023-07-16T02:58:00;10.10;;;5.97;;
25687;SDS011;17407;51.120;3.702;2023-07-16T03:00:30;16.63;;;6.78;;
25687;SDS011;17407;51.120;3.702;2023-07-16T03:02:56;14.75;;;6.82;;
25687;SDS011;17407;51.120;3.702;2023-07-16T03:05:23;15.80;;;6.40;;
25687;SDS011;17407;51.120;3.702;2023-07-16T03:07:49;12.88;;;6.47;;
25687;SDS011;17407;51.120;3.702;2023-07-16T03:10:15;18.48;;;6.82;;
25687;SDS011;17407;51.120;3.702;2023-07-16T03:12:41;13.27;;;6.57;;
25687;SDS011;17407;51.120;3.702;2023-07-16T03:15:07;11.88;;;6.28;;
25687;SDS011;17407;51.120;3.702;2023-07-16T03:17:33;9.88;;;6.45;;
25687;SDS011;17407;51.120;3.702;2023-07-16T03:19:58;12.43;;;6.35;;
25687;SDS011;17407;51.120;3.702;2023-07-16T03:22:24;14.57;;;6.78;;
25687;SDS011;17407;51.120;3.702;2023-07-16T03:24:50;14.43;;;6.93;;
25687;SDS011;17407;51.120;3.702;2023-07-16T03:27:15;13.43;;;6.35;;
25687;SDS011;17407;51.120;3.702;2023-07-16T03:29:41;10.30;;;6.45;;
25687;SDS011;17407;51.120;3.702;2023-07-16T03:32:07;14.02;;;7.03;;
25687;SDS011;17407;51.120;3.702;2023-07-16T03:34:32;14.73;;;7.07;;
25687;SDS011;17407;51.120;3.702;2023-07-16T03:36:58;16.90;;;6.68;;
25687;SDS011;17407;51.120;3.702;2023-07-16T03:39:24;12.30;;;6.15;;
25687;SDS011;17407;51.120;3.702;2023-07-16T03:41:49;19.80;;;8.60;;
25687;SDS011;17407;51.120;3.702;2023-07-16T03:44:15;15.07;;;7.45;;
25687;SDS011;17407;51.120;3.702;2023-07-16T03:46:40;14.50;;;7.43;;
25687;SDS011;17407;51.120;3.702;2023-07-16T03:49:06;15.75;;;7.40;;
25687;SDS011;17407;51.120;3.702;2023-07-16T03:51:33;20.58;;;7.53;;
25687;SDS011;17407;51.120;3.702;2023-07-16T03:53:59;12.90;;;6.90;;
25687;SDS011;17407;51.120;3.702;2023-07-16T03:56:24;16.90;;;6.55;;
25687;SDS011;17407;51.120;3.702;2023-07-16T03:58:50;9.70;;;6.68;;
25687;SDS011;17407;51.120;3.702;2023-07-16T04:01:16;16.40;;;7.93;;
25687;SDS011;17407;51.120;3.702;2023-07-16T04:03:41;13.32;;;7.13;;
25687;SDS011;17407;51.120;3.702;2023-07-16T04:06:08;13.60;;;7.30;;
25687;SDS011;17407;51.120;3.702;2023-07-16T04:08:34;15.38;;;7.68;;
25687;SDS011;17407;51.120;3.702;2023-07-16T04:11:01;12.65;;;7.35;;
25687;SDS011;17407;51.120;3.702;2023-07-16T04:13:27;15.20;;;7.00;;
25687;SDS011;17407;51.120;3.702;2023-07-16T04:15:53;16.13;;;7.53;;
25687;SDS011;17407;51.120;3.702;2023-07-16T04:18:24;16.42;;;8.30;;
25687;SDS011;17407;51.120;3.702;2023-07-16T04:20:50;14.32;;;7.63;;
25687;SDS011;17407;51.120;3.702;2023-07-16T04:23:16;20.50;;;7.93;;
25687;SDS011;17407;51.120;3.702;2023-07-16T04:25:42;13.50;;;8.25;;
25687;SDS011;17407;51.120;3.702;2023-07-16T04:28:09;15.50;;;7.95;;
25687;SDS011;17407;51.120;3.702;2023-07-16T04:30:35;16.17;;;7.65;;
25687;SDS011;17407;51.120;3.702;2023-07-16T04:33:02;13.52;;;7.85;;
25687;SDS011;17407;51.120;3.702;2023-07-16T04:35:28;19.02;;;8.15;;
25687;SDS011;17407;51.120;3.702;2023-07-16T04:37:54;16.38;;;8.18;;
25687;SDS011;17407;51.120;3.702;2023-07-16T04:40:19;15.93;;;8.15;;
25687;SDS011;17407;51.120;3.702;2023-07-16T04:42:45;16.35;;;8.13;;
25687;SDS011;17407;51.120;3.702;2023-07-16T04:45:11;21.27;;;8.98;;
25687;SDS011;17407;51.120;3.702;2023-07-16T04:47:37;18.00;;;8.75;;
25687;SDS011;17407;51.120;3.702;2023-07-16T04:50:02;21.85;;;9.05;;
25687;SDS011;17407;51.120;3.702;2023-07-16T04:52:28;18.67;;;9.50;;
25687;SDS011;17407;51.120;3.702;2023-07-16T04:54:54;17.20;;;8.98;;
25687;SDS011;17407;51.120;3.702;2023-07-16T04:57:20;17.92;;;9.32;;
25687;SDS011;17407;51.120;3.702;2023-07-16T04:59:46;15.05;;;9.27;;
25687;SDS011;17407;51.120;3.702;2023-07-16T05:02:11;21.02;;;9.13;;
25687;SDS011;17407;51.120;3.702;2023-07-16T05:04:39;18.10;;;9.27;;
25687;SDS011;17407;51.120;3.702;2023-07-16T05:07:04;19.02;;;9.55;;
25687;SDS011;17407;51.120;3.702;2023-07-16T05:09:30;16.08;;;8.55;;
25687;SDS011;17407;51.120;3.702;2023-07-16T05:11:56;15.82;;;8.75;;
25687;SDS011;17407;51.120;3.702;2023-07-16T05:14:21;15.57;;;9.05;;
25687;SDS011;17407;51.120;3.702;2023-07-16T05:16:47;16.80;;;9.70;;
25687;SDS011;17407;51.120;3.702;2023-07-16T05:19:13;19.30;;;8.85;;
25687;SDS011;17407;51.120;3.702;2023-07-16T05:21:38;21.20;;;9.52;;
25687;SDS011;17407;51.120;3.702;2023-07-16T05:24:04;25.45;;;9.55;;
25687;SDS011;17407;51.120;3.702;2023-07-16T05:26:30;19.20;;;9.73;;
25687;SDS011;17407;51.120;3.702;2023-07-16T05:28:55;22.65;;;9.60;;
25687;SDS011;17407;51.120;3.702;2023-07-16T05:31:21;23.60;;;8.82;;
25687;SDS011;17407;51.120;3.702;2023-07-16T05:33:47;19.90;;;9.40;;
25687;SDS011;17407;51.120;3.702;2023-07-16T05:36:12;19.00;;;9.27;;
25687;SDS011;17407;51.120;3.702;2023-07-16T05:38:38;20.67;;;10.00;;
25687;SDS011;17407;51.120;3.702;2023-07-16T05:41:04;24.20;;;9.55;;
25687;SDS011;17407;51.120;3.702;2023-07-16T05:43:30;20.92;;;9.50;;
25687;SDS011;17407;51.120;3.702;2023-07-16T05:45:56;13.48;;;8.50;;
25687;SDS011;17407;51.120;3.702;2023-07-16T05:48:23;19.45;;;9.80;;
25687;SDS011;17407;51.120;3.702;2023-07-16T05:50:49;20.00;;;10.85;;
25687;SDS011;17407;51.120;3.702;2023-07-16T05:53:15;19.17;;;9.82;;
25687;SDS011;17407;51.120;3.702;2023-07-16T05:55:40;18.27;;;9.93;;
25687;SDS011;17407;51.120;3.702;2023-07-16T05:58:06;19.95;;;9.30;;
25687;SDS011;17407;51.120;3.702;2023-07-16T06:00:32;20.02;;;9.05;;
25687;SDS011;17407;51.120;3.702;2023-07-16T06:02:57;22.00;;;9.95;;
25687;SDS011;17407;51.120;3.702;2023-07-16T06:05:23;16.48;;;9.00;;
25687;SDS011;17407;51.120;3.702;2023-07-16T06:07:51;21.02;;;10.45;;
25687;SDS011;17407;51.120;3.702;2023-07-16T06:10:17;23.65;;;9.82;;
25687;SDS011;17407;51.120;3.702;2023-07-16T06:12:42;15.52;;;9.40;;
25687;SDS011;17407;51.120;3.702;2023-07-16T06:15:08;23.92;;;10.65;;
25687;SDS011;17407;51.120;3.702;2023-07-16T06:17:34;19.13;;;9.07;;
25687;SDS011;17407;51.120;3.702;2023-07-16T06:20:00;19.40;;;9.85;;
25687;SDS011;17407;51.120;3.702;2023-07-16T06:22:27;21.20;;;10.25;;
25687;SDS011;17407;51.120;3.702;2023-07-16T06:24:52;19.20;;;10.27;;
25687;SDS011;17407;51.120;3.702;2023-07-16T06:27:18;22.17;;;9.45;;
25687;SDS011;17407;51.120;3.702;2023-07-16T06:29:43;20.08;;;10.55;;
25687;SDS011;17407;51.120;3.702;2023-07-16T06:32:10;16.70;;;10.00;;
25687;SDS011;17407;51.120;3.702;2023-07-16T06:34:36;16.55;;;9.70;;
25687;SDS011;17407;51.120;3.702;2023-07-16T06:37:01;17.25;;;9.77;;
25687;SDS011;17407;51.120;3.702;2023-07-16T06:39:27;18.63;;;9.52;;
25687;SDS011;17407;51.120;3.702;2023-07-16T06:41:52;19.02;;;10.32;;
25687;SDS011;17407;51.120;3.702;2023-07-16T06:44:18;16.30;;;9.38;;
25687;SDS011;17407;51.120;3.702;2023-07-16T06:46:44;20.25;;;10.38;;
25687;SDS011;17407;51.120;3.702;2023-07-16T06:49:09;22.60;;;11.07;;
25687;SDS011;17407;51.120;3.702;2023-07-16T06:51:35;23.77;;;9.38;;
25687;SDS011;17407;51.120;3.702;2023-07-16T06:54:01;21.52;;;10.13;;
25687;SDS011;17407;51.120;3.702;2023-07-16T06:56:26;19.85;;;9.35;;
25687;SDS011;17407;51.120;3.702;2023-07-16T06:58:52;21.50;;;10.40;;
25687;SDS011;17407;51.120;3.702;2023-07-16T07:01:18;20.33;;;10.02;;
25687;SDS011;17407;51.120;3.702;2023-07-16T07:03:43;20.60;;;10.35;;
25687;SDS011;17407;51.120;3.702;2023-07-16T07:06:09;21.40;;;10.20;;
25687;SDS011;17407;51.120;3.702;2023-07-16T07:08:36;18.17;;;9.52;;
25687;SDS011;17407;51.120;3.702;2023-07-16T07:11:03;25.05;;;10.13;;
25687;SDS011;17407;51.120;3.702;2023-07-16T07:13:29;18.75;;;9.88;;
25687;SDS011;17407;51.120;3.702;2023-07-16T07:15:55;25.27;;;10.35;;
25687;SDS011;17407;51.120;3.702;2023-07-16T07:18:21;23.40;;;10.52;;
25687;SDS011;17407;51.120;3.702;2023-07-16T07:20:47;19.63;;;9.82;;
25687;SDS011;17407;51.120;3.702;2023-07-16T07:23:13;18.88;;;10.48;;
25687;SDS011;17407;51.120;3.702;2023-07-16T07:25:39;20.23;;;10.23;;
25687;SDS011;17407;51.120;3.702;2023-07-16T07:28:05;22.05;;;10.32;;
25687;SDS011;17407;51.120;3.702;2023-07-16T07:30:31;16.10;;;9.15;;
25687;SDS011;17407;51.120;3.702;2023-07-16T07:32:57;20.67;;;9.23;;
25687;SDS011;17407;51.120;3.702;2023-07-16T07:35:23;17.30;;;10.70;;
25687;SDS011;17407;51.120;3.702;2023-07-16T07:37:48;19.85;;;9.85;;
25687;SDS011;17407;51.120;3.702;2023-07-16T07:40:14;21.50;;;9.18;;
25687;SDS011;17407;51.120;3.702;2023-07-16T07:42:40;23.00;;;9.35;;
25687;SDS011;17407;51.120;3.702;2023-07-16T07:45:06;15.65;;;9.00;;
25687;SDS011;17407;51.120;3.702;2023-07-16T07:47:32;19.25;;;9.93;;
25687;SDS011;17407;51.120;3.702;2023-07-16T07:49:57;17.77;;;9.18;;
25687;SDS011;17407;51.120;3.702;2023-07-16T07:52:23;14.88;;;8.88;;
25687;SDS011;17407;51.120;3.702;2023-07-16T07:54:49;22.40;;;9.32;;
25687;SDS011;17407;51.120;3.702;2023-07-16T07:57:15;17.73;;;9.15;;
25687;SDS011;17407;51.120;3.702;2023-07-16T07:59:41;24.92;;;9.57;;
25687;SDS011;17407;51.120;3.702;2023-07-16T08:02:06;16.63;;;9.07;;
25687;SDS011;17407;51.120;3.702;2023-07-16T08:04:32;18.15;;;9.43;;
25687;SDS011;17407;51.120;3.702;2023-07-16T08:06:57;21.52;;;8.80;;
25687;SDS011;17407;51.120;3.702;2023-07-16T08:09:25;15.85;;;9.20;;
25687;SDS011;17407;51.120;3.702;2023-07-16T08:11:51;17.95;;;8.25;;
25687;SDS011;17407;51.120;3.702;2023-07-16T08:14:17;13.95;;;8.38;;
25687;SDS011;17407;51.120;3.702;2023-07-16T08:16:42;15.80;;;9.55;;
25687;SDS011;17407;51.120;3.702;2023-07-16T08:19:08;18.85;;;9.50;;
25687;SDS011;17407;51.120;3.702;2023-07-16T08:21:34;20.05;;;8.93;;
25687;SDS011;17407;51.120;3.702;2023-07-16T08:24:01;18.13;;;8.82;;
25687;SDS011;17407;51.120;3.702;2023-07-16T08:26:26;19.20;;;9.25;;
25687;SDS011;17407;51.120;3.702;2023-07-16T08:28:52;15.32;;;7.93;;
25687;SDS011;17407;51.120;3.702;2023-07-16T08:31:18;18.10;;;8.20;;
25687;SDS011;17407;51.120;3.702;2023-07-16T08:33:43;16.85;;;8.75;;
25687;SDS011;17407;51.120;3.702;2023-07-16T08:36:09;11.57;;;8.00;;
25687;SDS011;17407;51.120;3.702;2023-07-16T08:38:35;20.98;;;8.55;;
25687;SDS011;17407;51.120;3.702;2023-07-16T08:41:01;17.83;;;8.02;;
25687;SDS011;17407;51.120;3.702;2023-07-16T08:43:27;17.08;;;8.65;;
25687;SDS011;17407;51.120;3.702;2023-07-16T08:45:54;14.60;;;8.25;;
25687;SDS011;17407;51.120;3.702;2023-07-16T08:48:20;15.27;;;7.35;;
25687;SDS011;17407;51.120;3.702;2023-07-16T08:50:48;39.83;;;8.55;;
25687;SDS011;17407;51.120;3.702;2023-07-16T08:53:17;18.67;;;7.30;;
25687;SDS011;17407;51.120;3.702;2023-07-16T08:55:46;18.13;;;8.15;;
25687;SDS011;17407;51.120;3.702;2023-07-16T08:58:13;12.98;;;7.25;;
25687;SDS011;17407;51.120;3.702;2023-07-16T09:00:40;14.73;;;6.97;;
25687;SDS011;17407;51.120;3.702;2023-07-16T09:03:08;21.60;;;9.00;;
25687;SDS011;17407;51.120;3.702;2023-07-16T09:05:35;18.33;;;7.65;;
25687;SDS011;17407;51.120;3.702;2023-07-16T09:08:01;16.85;;;8.10;;
25687;SDS011;17407;51.120;3.702;2023-07-16T09:10:27;17.08;;;8.05;;
25687;SDS011;17407;51.120;3.702;2023-07-16T09:12:57;20.42;;;7.72;;
25687;SDS011;17407;51.120;3.702;2023-07-16T09:15:23;19.52;;;8.43;;
25687;SDS011;17407;51.120;3.702;2023-07-16T09:17:53;17.15;;;7.50;;
25687;SDS011;17407;51.120;3.702;2023-07-16T09:20:20;17.38;;;7.88;;
25687;SDS011;17407;51.120;3.702;2023-07-16T09:22:47;16.67;;;7.75;;
25687;SDS011;17407;51.120;3.702;2023-07-16T09:25:13;18.75;;;8.70;;
25687;SDS011;17407;51.120;3.702;2023-07-16T09:27:38;17.98;;;8.93;;
25687;SDS011;17407;51.120;3.702;2023-07-16T09:30:04;20.08;;;8.15;;
25687;SDS011;17407;51.120;3.702;2023-07-16T09:32:35;14.20;;;7.13;;
25687;SDS011;17407;51.120;3.702;2023-07-16T09:35:06;18.27;;;6.43;;
25687;SDS011;17407;51.120;3.702;2023-07-16T09:37:35;10.60;;;4.85;;
25687;SDS011;17407;51.120;3.702;2023-07-16T09:40:03;7.55;;;3.90;;
25687;SDS011;17407;51.120;3.702;2023-07-16T09:42:38;9.57;;;3.72;;
25687;SDS011;17407;51.120;3.702;2023-07-16T09:45:06;5.10;;;2.53;;
25687;SDS011;17407;51.120;3.702;2023-07-16T09:47:35;8.57;;;2.97;;
25687;SDS011;17407;51.120;3.702;2023-07-16T09:50:04;10.93;;;2.67;;
25687;SDS011;17407;51.120;3.702;2023-07-16T09:52:31;4.03;;;2.28;;
25687;SDS011;17407;51.120;3.702;2023-07-16T09:54:58;3.42;;;1.77;;
25687;SDS011;17407;51.120;3.702;2023-07-16T09:57:30;5.78;;;2.42;;
25687;SDS011;17407;51.120;3.702;2023-07-16T10:00:00;5.72;;;2.03;;
25687;SDS011;17407;51.120;3.702;2023-07-16T10:02:33;4.85;;;2.20;;
25687;SDS011;17407;51.120;3.702;2023-07-16T10:05:00;4.80;;;1.90;;
25687;SDS011;17407;51.120;3.702;2023-07-16T10:07:43;3.78;;;1.55;;
25687;SDS011;17407;51.120;3.702;2023-07-16T10:10:16;3.72;;;1.35;;
25687;SDS011;17407;51.120;3.702;2023-07-16T10:12:42;2.22;;;1.30;;
25687;SDS011;17407;51.120;3.702;2023-07-16T10:15:24;4.15;;;1.52;;
25687;SDS011;17407;51.120;3.702;2023-07-16T10:17:51;5.20;;;1.73;;
25687;SDS011;17407;51.120;3.702;2023-07-16T10:20:16;4.30;;;1.48;;
25687;SDS011;17407;51.120;3.702;2023-07-16T10:22:52;5.47;;;2.13;;
25687;SDS011;17407;51.120;3.702;2023-07-16T10:27:43;7.32;;;2.97;;
25687;SDS011;17407;51.120;3.702;2023-07-16T10:30:10;4.85;;;1.85;;
25687;SDS011;17407;51.120;3.702;2023-07-16T10:32:36;6.93;;;2.25;;
25687;SDS011;17407;51.120;3.702;2023-07-16T10:35:03;3.05;;;2.00;;
25687;SDS011;17407;51.120;3.702;2023-07-16T10:37:30;4.18;;;2.10;;
25687;SDS011;17407;51.120;3.702;2023-07-16T10:39:57;7.28;;;2.05;;
25687;SDS011;17407;51.120;3.702;2023-07-16T10:42:24;6.78;;;2.10;;
25687;SDS011;17407;51.120;3.702;2023-07-16T10:44:51;6.07;;;2.35;;
25687;SDS011;17407;51.120;3.702;2023-07-16T10:47:40;4.60;;;2.00;;
25687;SDS011;17407;51.120;3.702;2023-07-16T10:50:16;4.63;;;2.05;;
25687;SDS011;17407;51.120;3.702;2023-07-16T10:52:44;5.10;;;2.22;;
25687;SDS011;17407;51.120;3.702;2023-07-16T10:55:09;8.65;;;2.05;;
25687;SDS011;17407;51.120;3.702;2023-07-16T10:57:35;4.28;;;2.30;;
25687;SDS011;17407;51.120;3.702;2023-07-16T11:00:01;5.53;;;2.70;;
25687;SDS011;17407;51.120;3.702;2023-07-16T11:02:28;11.60;;;3.45;;
25687;SDS011;17407;51.120;3.702;2023-07-16T11:04:54;11.10;;;3.25;;
25687;SDS011;17407;51.120;3.702;2023-07-16T11:07:22;6.00;;;2.65;;
25687;SDS011;17407;51.120;3.702;2023-07-16T11:09:51;8.80;;;3.70;;
25687;SDS011;17407;51.120;3.702;2023-07-16T11:12:21;6.78;;;3.33;;
25687;SDS011;17407;51.120;3.702;2023-07-16T11:14:49;9.75;;;3.65;;
25687;SDS011;17407;51.120;3.702;2023-07-16T11:17:16;7.60;;;3.65;;
25687;SDS011;17407;51.120;3.702;2023-07-16T11:19:48;9.43;;;3.55;;
25687;SDS011;17407;51.120;3.702;2023-07-16T11:22:17;7.20;;;3.40;;
25687;SDS011;17407;51.120;3.702;2023-07-16T11:24:44;11.68;;;3.30;;
25687;SDS011;17407;51.120;3.702;2023-07-16T11:27:21;9.38;;;3.33;;
25687;SDS011;17407;51.120;3.702;2023-07-16T11:29:57;13.40;;;3.78;;
25687;SDS011;17407;51.120;3.702;2023-07-16T11:32:31;6.38;;;3.47;;
25687;SDS011;17407;51.120;3.702;2023-07-16T11:35:17;6.95;;;3.08;;
25687;SDS011;17407;51.120;3.702;2023-07-16T11:37:44;11.90;;;3.60;;
25687;SDS011;17407;51.120;3.702;2023-07-16T11:40:11;8.23;;;3.22;;
25687;SDS011;17407;51.120;3.702;2023-07-16T11:42:41;8.98;;;3.72;;
25687;SDS011;17407;51.120;3.702;2023-07-16T11:47:44;8.10;;;3.60;;
25687;SDS011;17407;51.120;3.702;2023-07-16T11:50:10;8.40;;;3.60;;
25687;SDS011;17407;51.120;3.702;2023-07-16T11:52:36;9.85;;;3.35;;
25687;SDS011;17407;51.120;3.702;2023-07-16T11:55:03;6.07;;;3.42;;
25687;SDS011;17407;51.120;3.702;2023-07-16T11:57:29;8.13;;;3.10;;
25687;SDS011;17407;51.120;3.702;2023-07-16T11:59:55;7.07;;;3.03;;
25687;SDS011;17407;51.120;3.702;2023-07-16T12:02:21;7.07;;;3.45;;
25687;SDS011;17407;51.120;3.702;2023-07-16T12:04:47;12.25;;;3.20;;
25687;SDS011;17407;51.120;3.702;2023-07-16T12:07:13;7.93;;;3.65;;
25687;SDS011;17407;51.120;3.702;2023-07-16T12:09:39;6.85;;;2.67;;
25687;SDS011;17407;51.120;3.702;2023-07-16T12:12:05;8.60;;;3.75;;
25687;SDS011;17407;51.120;3.702;2023-07-16T12:14:31;6.00;;;2.60;;
25687;SDS011;17407;51.120;3.702;2023-07-16T12:16:57;4.13;;;2.33;;
25687;SDS011;17407;51.120;3.702;2023-07-16T12:19:24;7.10;;;2.60;;
25687;SDS011;17407;51.120;3.702;2023-07-16T12:21:50;6.47;;;2.42;;
25687;SDS011;17407;51.120;3.702;2023-07-16T12:24:16;5.53;;;2.70;;
25687;SDS011;17407;51.120;3.702;2023-07-16T12:26:42;6.93;;;2.85;;
25687;SDS011;17407;51.120;3.702;2023-07-16T12:29:07;5.90;;;2.63;;
25687;SDS011;17407;51.120;3.702;2023-07-16T12:31:33;8.02;;;2.90;;
25687;SDS011;17407;51.120;3.702;2023-07-16T12:34:02;7.80;;;2.90;;
25687;SDS011;17407;51.120;3.702;2023-07-16T12:36:28;6.50;;;2.55;;
25687;SDS011;17407;51.120;3.702;2023-07-16T12:38:54;6.55;;;3.08;;
25687;SDS011;17407;51.120;3.702;2023-07-16T12:41:19;4.82;;;2.50;;
25687;SDS011;17407;51.120;3.702;2023-07-16T12:43:45;5.18;;;2.42;;
25687;SDS011;17407;51.120;3.702;2023-07-16T12:46:11;6.28;;;2.95;;
25687;SDS011;17407;51.120;3.702;2023-07-16T12:48:37;6.80;;;2.60;;
25687;SDS011;17407;51.120;3.702;2023-07-16T12:51:02;10.68;;;3.08;;
25687;SDS011;17407;51.120;3.702;2023-07-16T12:53:28;5.60;;;2.63;;
25687;SDS011;17407;51.120;3.702;2023-07-16T12:55:54;7.15;;;3.17;;
25687;SDS011;17407;51.120;3.702;2023-07-16T12:58:19;6.00;;;2.75;;
25687;SDS011;17407;51.120;3.702;2023-07-16T13:00:45;8.13;;;2.97;;
25687;SDS011;17407;51.120;3.702;2023-07-16T13:03:11;7.80;;;3.00;;
25687;SDS011;17407;51.120;3.702;2023-07-16T13:05:39;5.43;;;2.70;;
25687;SDS011;17407;51.120;3.702;2023-07-16T13:08:09;5.63;;;2.65;;
25687;SDS011;17407;51.120;3.702;2023-07-16T13:10:35;7.88;;;2.70;;
25687;SDS011;17407;51.120;3.702;2023-07-16T13:13:01;4.93;;;2.60;;
25687;SDS011;17407;51.120;3.702;2023-07-16T13:15:28;6.10;;;2.97;;
25687;SDS011;17407;51.120;3.702;2023-07-16T13:17:54;6.47;;;2.97;;
25687;SDS011;17407;51.120;3.702;2023-07-16T13:20:20;4.35;;;2.08;;
25687;SDS011;17407;51.120;3.702;2023-07-16T13:22:47;6.60;;;2.67;;
25687;SDS011;17407;51.120;3.702;2023-07-16T13:25:13;6.00;;;2.72;;
25687;SDS011;17407;51.120;3.702;2023-07-16T13:27:39;8.07;;;2.65;;
25687;SDS011;17407;51.120;3.702;2023-07-16T13:30:05;5.60;;;2.55;;
25687;SDS011;17407;51.120;3.702;2023-07-16T13:32:31;4.13;;;2.33;;
25687;SDS011;17407;51.120;3.702;2023-07-16T13:34:57;6.45;;;2.45;;
25687;SDS011;17407;51.120;3.702;2023-07-16T13:37:23;4.28;;;2.63;;
25687;SDS011;17407;51.120;3.702;2023-07-16T13:39:49;6.90;;;2.97;;
25687;SDS011;17407;51.120;3.702;2023-07-16T13:42:14;4.28;;;2.20;;
25687;SDS011;17407;51.120;3.702;2023-07-16T13:44:40;6.65;;;2.92;;
25687;SDS011;17407;51.120;3.702;2023-07-16T13:47:06;5.47;;;2.75;;
25687;SDS011;17407;51.120;3.702;2023-07-16T13:49:31;5.70;;;2.70;;
25687;SDS011;17407;51.120;3.702;2023-07-16T13:51:57;9.18;;;3.08;;
25687;SDS011;17407;51.120;3.702;2023-07-16T13:54:23;6.32;;;2.95;;
25687;SDS011;17407;51.120;3.702;2023-07-16T13:56:48;6.60;;;2.88;;
25687;SDS011;17407;51.120;3.702;2023-07-16T13:59:14;7.82;;;2.97;;
25687;SDS011;17407;51.120;3.702;2023-07-16T14:01:40;6.38;;;3.17;;
25687;SDS011;17407;51.120;3.702;2023-07-16T14:04:06;7.82;;;2.90;;
25687;SDS011;17407;51.120;3.702;2023-07-16T14:06:32;4.70;;;2.78;;
25687;SDS011;17407;51.120;3.702;2023-07-16T14:08:58;5.07;;;2.40;;
25687;SDS011;17407;51.120;3.702;2023-07-16T14:11:25;6.50;;;2.92;;
25687;SDS011;17407;51.120;3.702;2023-07-16T14:13:51;5.53;;;2.70;;
25687;SDS011;17407;51.120;3.702;2023-07-16T14:16:18;6.88;;;3.10;;
25687;SDS011;17407;51.120;3.702;2023-07-16T14:18:44;4.78;;;2.38;;
25687;SDS011;17407;51.120;3.702;2023-07-16T14:21:10;6.20;;;2.50;;
25687;SDS011;17407;51.120;3.702;2023-07-16T14:23:36;5.90;;;2.53;;
25687;SDS011;17407;51.120;3.702;2023-07-16T14:26:01;7.47;;;2.45;;
25687;SDS011;17407;51.120;3.702;2023-07-16T14:28:28;4.97;;;2.85;;
25687;SDS011;17407;51.120;3.702;2023-07-16T14:30:54;6.78;;;2.95;;
25687;SDS011;17407;51.120;3.702;2023-07-16T14:33:19;9.00;;;3.03;;
25687;SDS011;17407;51.120;3.702;2023-07-16T14:35:45;4.32;;;2.47;;
25687;SDS011;17407;51.120;3.702;2023-07-16T14:38:11;5.13;;;2.33;;
25687;SDS011;17407;51.120;3.702;2023-07-16T14:40:37;7.25;;;2.80;;
25687;SDS011;17407;51.120;3.702;2023-07-16T14:43:03;5.05;;;2.33;;
25687;SDS011;17407;51.120;3.702;2023-07-16T14:45:30;4.88;;;2.53;;